sensor_id;sensor_type;location;lat;lon;timestamp;pressure;altitude;pressure_sealevel;temperature;humidity
81162;BME280;70638;-33.792;151.032;2024-01-15T00:00:16;101642.99;;;18.40;100.00
81162;BME280;70638;-33.792;151.032;2024-01-15T00:02:47;101643.44;;;18.42;100.00
81162;BME280;70638;-33.792;151.032;2024-01-15T00:05:25;101640.77;;;18.41;100.00
81162;BME280;70638;-33.792;151.032;2024-01-15T00:07:50;101644.28;;;18.43;100.00
81162;BME280;70638;-33.792;151.032;2024-01-15T00:10:20;101649.02;;;18.47;100.00
81162;BME280;70638;-33.792;151.032;2024-01-15T00:12:55;101647.62;;;18.36;100.00
81162;BME280;70638;-33.792;151.032;2024-01-15T00:15:19;101656.57;;;18.36;100.00
81162;BME280;70638;-33.792;151.032;2024-01-15T00:17:49;101655.68;;;18.30;100.00
81162;BME280;70638;-33.792;151.032;2024-01-15T00:20:22;101648.59;;;18.27;100.00
81162;BME280;70638;-33.792;151.032;2024-01-15T00:22:50;101647.33;;;18.31;100.00
81162;BME280;70638;-33.792;151.032;2024-01-15T00:25:23;101644.46;;;18.32;100.00
81162;BME280;70638;-33.792;151.032;2024-01-15T00:27:55;101641.62;;;18.41;100.00
81162;BME280;70638;-33.792;151.032;2024-01-15T00:30:21;101630.61;;;18.48;100.00
81162;BME280;70638;-33.792;151.032;2024-01-15T00:32:51;101637.64;;;18.57;100.00
81162;BME280;70638;-33.792;151.032;2024-01-15T00:35:21;101638.64;;;18.64;100.00
81162;BME280;70638;-33.792;151.032;2024-01-15T00:37:51;101636.34;;;18.63;100.00
81162;BME280;70638;-33.792;151.032;2024-01-15T00:40:21;101631.61;;;18.73;100.00
81162;BME280;70638;-33.792;151.032;2024-01-15T00:42:51;101630.42;;;18.80;100.00
81162;BME280;70638;-33.792;151.032;2024-01-15T00:45:26;101631.12;;;18.86;100.00
81162;BME280;70638;-33.792;151.032;2024-01-15T00:47:52;101626.08;;;18.83;100.00
81162;BME280;70638;-33.792;151.032;2024-01-15T00:50:22;101620.30;;;18.90;100.00
81162;BME280;70638;-33.792;151.032;2024-01-15T00:52:52;101614.88;;;18.94;100.00
81162;BME280;70638;-33.792;151.032;2024-01-15T00:55:48;101609.96;;;18.96;100.00
81162;BME280;70638;-33.792;151.032;2024-01-15T00:57:53;101615.73;;;18.91;100.00
81162;BME280;70638;-33.792;151.032;2024-01-15T01:00:23;101626.12;;;18.91;100.00
81162;BME280;70638;-33.792;151.032;2024-01-15T01:02:54;101620.21;;;19.01;100.00
81162;BME280;70638;-33.792;151.032;2024-01-15T01:05:30;101620.12;;;19.02;100.00
81162;BME280;70638;-33.792;151.032;2024-01-15T01:07:55;101604.57;;;19.12;100.00
81162;BME280;70638;-33.792;151.032;2024-01-15T01:10:25;101603.23;;;19.27;100.00
81162;BME280;70638;-33.792;151.032;2024-01-15T01:12:55;101608.11;;;19.01;100.00
81162;BME280;70638;-33.792;151.032;2024-01-15T01:15:32;101629.12;;;19.16;100.00
81162;BME280;70638;-33.792;151.032;2024-01-15T01:17:56;101604.33;;;19.14;100.00
81162;BME280;70638;-33.792;151.032;2024-01-15T01:20:26;101608.78;;;19.23;100.00
81162;BME280;70638;-33.792;151.032;2024-01-15T01:22:56;101608.31;;;19.43;100.00
81162;BME280;70638;-33.792;151.032;2024-01-15T01:25:26;101602.70;;;19.47;100.00
81162;BME280;70638;-33.792;151.032;2024-01-15T01:27:56;101595.32;;;19.66;100.00
81162;BME280;70638;-33.792;151.032;2024-01-15T01:30:27;101597.53;;;19.64;100.00
81162;BME280;70638;-33.792;151.032;2024-01-15T01:32:57;101594.22;;;19.59;100.00
81162;BME280;70638;-33.792;151.032;2024-01-15T01:35:32;101598.13;;;19.57;100.00
81162;BME280;70638;-33.792;151.032;2024-01-15T01:37:58;101583.50;;;19.68;100.00
81162;BME280;70638;-33.792;151.032;2024-01-15T01:40:28;101579.42;;;19.81;100.00
81162;BME280;70638;-33.792;151.032;2024-01-15T01:42:58;101582.58;;;20.03;100.00
81162;BME280;70638;-33.792;151.032;2024-01-15T01:45:40;101570.09;;;20.14;100.00
81162;BME280;70638;-33.792;151.032;2024-01-15T01:48:00;101580.52;;;20.26;100.00
81162;BME280;70638;-33.792;151.032;2024-01-15T01:50:35;101575.04;;;20.24;100.00
81162;BME280;70638;-33.792;151.032;2024-01-15T01:52:59;101573.16;;;20.26;100.00
81162;BME280;70638;-33.792;151.032;2024-01-15T01:55:37;101571.52;;;20.26;100.00
81162;BME280;70638;-33.792;151.032;2024-01-15T01:58:07;101568.02;;;20.28;100.00
81162;BME280;70638;-33.792;151.032;2024-01-15T02:00:34;101568.46;;;20.22;98.50
81162;BME280;70638;-33.792;151.032;2024-01-15T02:03:02;101565.41;;;20.16;97.95
81162;BME280;70638;-33.792;151.032;2024-01-15T02:05:31;101574.80;;;19.71;99.46
81162;BME280;70638;-33.792;151.032;2024-01-15T02:08:01;101587.98;;;19.26;100.00
81162;BME280;70638;-33.792;151.032;2024-01-15T02:10:32;101588.80;;;18.92;100.00
81162;BME280;70638;-33.792;151.032;2024-01-15T02:13:04;101585.50;;;18.70;100.00
81162;BME280;70638;-33.792;151.032;2024-01-15T02:15:38;101596.28;;;18.62;100.00
81162;BME280;70638;-33.792;151.032;2024-01-15T02:18:04;101594.88;;;18.57;100.00
81162;BME280;70638;-33.792;151.032;2024-01-15T02:20:35;101593.73;;;18.44;100.00
81162;BME280;70638;-33.792;151.032;2024-01-15T02:23:11;101599.27;;;18.36;100.00
81162;BME280;70638;-33.792;151.032;2024-01-15T02:25:35;101592.77;;;18.29;100.00
81162;BME280;70638;-33.792;151.032;2024-01-15T02:28:06;101597.88;;;18.29;100.00
81162;BME280;70638;-33.792;151.032;2024-01-15T02:30:40;101597.25;;;18.37;100.00
81162;BME280;70638;-33.792;151.032;2024-01-15T02:33:07;101590.69;;;18.38;100.00
81162;BME280;70638;-33.792;151.032;2024-01-15T02:35:43;101587.94;;;18.35;100.00
81162;BME280;70638;-33.792;151.032;2024-01-15T02:38:09;101589.38;;;18.32;100.00
81162;BME280;70638;-33.792;151.032;2024-01-15T02:40:39;101579.63;;;18.53;100.00
81162;BME280;70638;-33.792;151.032;2024-01-15T02:43:09;101574.59;;;18.50;100.00
81162;BME280;70638;-33.792;151.032;2024-01-15T02:45:39;101579.24;;;18.62;100.00
81162;BME280;70638;-33.792;151.032;2024-01-15T02:48:09;101575.88;;;18.80;100.00
81162;BME280;70638;-33.792;151.032;2024-01-15T02:50:39;101576.77;;;19.10;100.00
81162;BME280;70638;-33.792;151.032;2024-01-15T02:53:10;101575.42;;;19.18;100.00
81162;BME280;70638;-33.792;151.032;2024-01-15T02:55:45;101567.28;;;19.37;100.00
81162;BME280;70638;-33.792;151.032;2024-01-15T02:58:10;101556.83;;;19.55;100.00
81162;BME280;70638;-33.792;151.032;2024-01-15T03:00:40;101552.23;;;19.49;100.00
81162;BME280;70638;-33.792;151.032;2024-01-15T03:03:11;101544.64;;;19.55;100.00
81162;BME280;70638;-33.792;151.032;2024-01-15T03:05:41;101553.86;;;19.57;100.00
81162;BME280;70638;-33.792;151.032;2024-01-15T03:08:17;101551.23;;;19.67;100.00
81162;BME280;70638;-33.792;151.032;2024-01-15T03:10:42;101551.43;;;19.81;100.00
81162;BME280;70638;-33.792;151.032;2024-01-15T03:13:12;101545.53;;;19.98;100.00
81162;BME280;70638;-33.792;151.032;2024-01-15T03:15:43;101543.89;;;19.93;100.00
81162;BME280;70638;-33.792;151.032;2024-01-15T03:18:13;101547.66;;;19.96;100.00
81162;BME280;70638;-33.792;151.032;2024-01-15T03:20:43;101548.95;;;20.02;100.00
81162;BME280;70638;-33.792;151.032;2024-01-15T03:23:13;101555.15;;;20.12;100.00
81162;BME280;70638;-33.792;151.032;2024-01-15T03:25:44;101547.54;;;20.27;99.91
81162;BME280;70638;-33.792;151.032;2024-01-15T03:28:14;101544.87;;;20.37;98.60
81162;BME280;70638;-33.792;151.032;2024-01-15T03:30:44;101548.17;;;20.59;93.93
81162;BME280;70638;-33.792;151.032;2024-01-15T03:33:14;101548.61;;;20.74;91.44
81162;BME280;70638;-33.792;151.032;2024-01-15T03:35:45;101544.33;;;20.97;90.38
81162;BME280;70638;-33.792;151.032;2024-01-15T03:38:19;101536.66;;;21.25;88.81
81162;BME280;70638;-33.792;151.032;2024-01-15T03:40:48;101539.00;;;21.39;83.92
81162;BME280;70638;-33.792;151.032;2024-01-15T03:43:18;101532.77;;;21.46;83.91
81162;BME280;70638;-33.792;151.032;2024-01-15T03:45:46;101539.31;;;21.64;82.71
81162;BME280;70638;-33.792;151.032;2024-01-15T03:48:16;101531.31;;;22.00;82.97
81162;BME280;70638;-33.792;151.032;2024-01-15T03:50:46;101526.98;;;22.23;79.98
81162;BME280;70638;-33.792;151.032;2024-01-15T03:53:16;101533.36;;;22.29;82.07
81162;BME280;70638;-33.792;151.032;2024-01-15T03:55:46;101534.72;;;22.17;80.20
81162;BME280;70638;-33.792;151.032;2024-01-15T03:58:17;101534.04;;;22.28;83.65
81162;BME280;70638;-33.792;151.032;2024-01-15T04:00:49;101525.75;;;22.19;80.23
81162;BME280;70638;-33.792;151.032;2024-01-15T04:03:18;101524.83;;;22.14;80.45
81162;BME280;70638;-33.792;151.032;2024-01-15T04:05:49;101529.59;;;22.09;78.73
81162;BME280;70638;-33.792;151.032;2024-01-15T04:08:22;101529.23;;;22.22;78.16
81162;BME280;70638;-33.792;151.032;2024-01-15T04:10:49;101527.33;;;22.31;75.93
81162;BME280;70638;-33.792;151.032;2024-01-15T04:13:19;101525.72;;;22.58;75.13
81162;BME280;70638;-33.792;151.032;2024-01-15T04:15:49;101524.74;;;22.70;73.63
81162;BME280;70638;-33.792;151.032;2024-01-15T04:18:20;101527.23;;;22.82;72.16
81162;BME280;70638;-33.792;151.032;2024-01-15T04:21:12;101540.57;;;22.86;72.39
81162;BME280;70638;-33.792;151.032;2024-01-15T04:23:21;101517.64;;;22.53;70.62
81162;BME280;70638;-33.792;151.032;2024-01-15T04:25:51;101520.51;;;22.50;73.46
81162;BME280;70638;-33.792;151.032;2024-01-15T04:28:21;101517.50;;;22.01;77.12
81162;BME280;70638;-33.792;151.032;2024-01-15T04:30:51;101520.12;;;21.76;81.37
81162;BME280;70638;-33.792;151.032;2024-01-15T04:33:27;101511.81;;;21.87;77.74
81162;BME280;70638;-33.792;151.032;2024-01-15T04:35:52;101506.69;;;22.12;80.46
81162;BME280;70638;-33.792;151.032;2024-01-15T04:38:22;101508.70;;;22.17;74.96
81162;BME280;70638;-33.792;151.032;2024-01-15T04:40:57;101505.80;;;22.32;82.42
81162;BME280;70638;-33.792;151.032;2024-01-15T04:43:23;101499.05;;;22.05;77.78
81162;BME280;70638;-33.792;151.032;2024-01-15T04:45:53;101506.39;;;21.71;75.43
81162;BME280;70638;-33.792;151.032;2024-01-15T04:48:25;101514.17;;;21.36;79.19
81162;BME280;70638;-33.792;151.032;2024-01-15T04:50:54;101506.70;;;20.79;82.73
81162;BME280;70638;-33.792;151.032;2024-01-15T04:53:24;101506.98;;;20.59;82.14
81162;BME280;70638;-33.792;151.032;2024-01-15T04:55:54;101509.75;;;20.66;88.55
81162;BME280;70638;-33.792;151.032;2024-01-15T04:58:28;101509.45;;;20.83;90.00
81162;BME280;70638;-33.792;151.032;2024-01-15T05:00:56;101514.47;;;20.88;82.52
81162;BME280;70638;-33.792;151.032;2024-01-15T05:03:37;101506.29;;;20.77;81.09
81162;BME280;70638;-33.792;151.032;2024-01-15T05:05:58;101499.38;;;20.74;80.85
81162;BME280;70638;-33.792;151.032;2024-01-15T05:08:26;101492.12;;;20.71;85.26
81162;BME280;70638;-33.792;151.032;2024-01-15T05:11:05;101490.84;;;20.77;86.31
81162;BME280;70638;-33.792;151.032;2024-01-15T05:13:27;101486.82;;;20.90;79.19
81162;BME280;70638;-33.792;151.032;2024-01-15T05:16:03;101490.75;;;20.90;79.32
81162;BME280;70638;-33.792;151.032;2024-01-15T05:18:33;101489.11;;;20.96;80.56
81162;BME280;70638;-33.792;151.032;2024-01-15T05:21:04;101498.41;;;20.97;77.35
81162;BME280;70638;-33.792;151.032;2024-01-15T05:23:29;101482.37;;;21.07;77.56
81162;BME280;70638;-33.792;151.032;2024-01-15T05:26:01;101483.08;;;21.14;76.81
81162;BME280;70638;-33.792;151.032;2024-01-15T05:28:33;101480.06;;;21.32;75.15
81162;BME280;70638;-33.792;151.032;2024-01-15T05:31:01;101481.59;;;21.39;72.85
81162;BME280;70638;-33.792;151.032;2024-01-15T05:33:31;101485.69;;;21.20;74.90
81162;BME280;70638;-33.792;151.032;2024-01-15T05:36:01;101485.27;;;20.61;78.34
81162;BME280;70638;-33.792;151.032;2024-01-15T05:38:31;101498.68;;;20.21;86.60
81162;BME280;70638;-33.792;151.032;2024-01-15T05:41:12;101505.22;;;19.65;89.26
81162;BME280;70638;-33.792;151.032;2024-01-15T05:43:31;101517.59;;;19.01;96.50
81162;BME280;70638;-33.792;151.032;2024-01-15T05:46:02;101512.92;;;18.70;100.00
81162;BME280;70638;-33.792;151.032;2024-01-15T05:48:32;101505.42;;;18.52;100.00
81162;BME280;70638;-33.792;151.032;2024-01-15T05:51:05;101508.12;;;18.47;100.00
81162;BME280;70638;-33.792;151.032;2024-01-15T05:53:33;101510.40;;;18.24;100.00
81162;BME280;70638;-33.792;151.032;2024-01-15T05:56:04;101509.59;;;18.19;100.00
81162;BME280;70638;-33.792;151.032;2024-01-15T05:58:33;101502.73;;;18.12;100.00
81162;BME280;70638;-33.792;151.032;2024-01-15T06:01:03;101498.20;;;18.09;100.00
81162;BME280;70638;-33.792;151.032;2024-01-15T06:03:40;101496.63;;;18.00;100.00
81162;BME280;70638;-33.792;151.032;2024-01-15T06:06:05;101488.97;;;17.87;100.00
81162;BME280;70638;-33.792;151.032;2024-01-15T06:08:34;101493.75;;;17.89;100.00
81162;BME280;70638;-33.792;151.032;2024-01-15T06:11:07;101489.73;;;17.86;100.00
81162;BME280;70638;-33.792;151.032;2024-01-15T06:13:35;101490.50;;;17.87;100.00
81162;BME280;70638;-33.792;151.032;2024-01-15T06:16:16;101486.23;;;17.88;100.00
81162;BME280;70638;-33.792;151.032;2024-01-15T06:18:36;101471.35;;;18.01;100.00
81162;BME280;70638;-33.792;151.032;2024-01-15T06:21:09;101471.53;;;18.16;100.00
81162;BME280;70638;-33.792;151.032;2024-01-15T06:23:38;101469.05;;;18.33;100.00
81162;BME280;70638;-33.792;151.032;2024-01-15T06:26:07;101467.88;;;18.31;100.00
81162;BME280;70638;-33.792;151.032;2024-01-15T06:28:37;101470.84;;;18.30;100.00
81162;BME280;70638;-33.792;151.032;2024-01-15T06:31:08;101471.95;;;18.33;100.00
81162;BME280;70638;-33.792;151.032;2024-01-15T06:33:37;101468.00;;;18.39;100.00
81162;BME280;70638;-33.792;151.032;2024-01-15T06:36:08;101464.05;;;18.50;100.00
81162;BME280;70638;-33.792;151.032;2024-01-15T06:38:38;101467.22;;;18.56;100.00
81162;BME280;70638;-33.792;151.032;2024-01-15T06:41:08;101469.66;;;18.72;100.00
81162;BME280;70638;-33.792;151.032;2024-01-15T06:43:43;101466.05;;;18.80;100.00
81162;BME280;70638;-33.792;151.032;2024-01-15T06:46:08;101466.58;;;18.86;100.00
81162;BME280;70638;-33.792;151.032;2024-01-15T06:48:38;101454.55;;;18.89;100.00
81162;BME280;70638;-33.792;151.032;2024-01-15T06:51:11;101453.89;;;18.87;100.00
81162;BME280;70638;-33.792;151.032;2024-01-15T06:53:39;101448.70;;;18.94;100.00
81162;BME280;70638;-33.792;151.032;2024-01-15T06:56:13;101442.24;;;19.01;100.00
81162;BME280;70638;-33.792;151.032;2024-01-15T06:58:39;101439.51;;;19.08;100.00
81162;BME280;70638;-33.792;151.032;2024-01-15T07:01:10;101438.66;;;19.16;100.00
81162;BME280;70638;-33.792;151.032;2024-01-15T07:03:47;101439.03;;;19.17;100.00
81162;BME280;70638;-33.792;151.032;2024-01-15T07:06:11;101438.77;;;19.26;100.00
81162;BME280;70638;-33.792;151.032;2024-01-15T07:08:44;101438.69;;;19.25;100.00
81162;BME280;70638;-33.792;151.032;2024-01-15T07:11:11;101433.72;;;19.26;100.00
81162;BME280;70638;-33.792;151.032;2024-01-15T07:13:41;101433.91;;;19.33;99.01
81162;BME280;70638;-33.792;151.032;2024-01-15T07:16:11;101428.97;;;19.38;98.44
81162;BME280;70638;-33.792;151.032;2024-01-15T07:18:41;101429.30;;;19.40;99.69
81162;BME280;70638;-33.792;151.032;2024-01-15T07:21:12;101430.41;;;19.57;100.00
81162;BME280;70638;-33.792;151.032;2024-01-15T07:23:54;101429.72;;;19.50;97.69
81162;BME280;70638;-33.792;151.032;2024-01-15T07:26:13;101432.20;;;19.49;97.37
81162;BME280;70638;-33.792;151.032;2024-01-15T07:28:43;101432.78;;;19.64;96.88
81162;BME280;70638;-33.792;151.032;2024-01-15T07:31:18;101426.48;;;19.67;93.87
81162;BME280;70638;-33.792;151.032;2024-01-15T07:33:48;101430.66;;;19.74;96.61
81162;BME280;70638;-33.792;151.032;2024-01-15T07:36:15;101433.05;;;19.75;94.96
81162;BME280;70638;-33.792;151.032;2024-01-15T07:38:55;101431.42;;;19.82;93.44
81162;BME280;70638;-33.792;151.032;2024-01-15T07:41:15;101428.08;;;19.83;91.75
81162;BME280;70638;-33.792;151.032;2024-01-15T07:43:45;101431.52;;;19.84;90.81
81162;BME280;70638;-33.792;151.032;2024-01-15T07:46:21;101436.02;;;19.78;97.52
81162;BME280;70638;-33.792;151.032;2024-01-15T07:48:46;101428.34;;;19.80;92.30
81162;BME280;70638;-33.792;151.032;2024-01-15T07:51:16;101427.75;;;19.78;94.63
81162;BME280;70638;-33.792;151.032;2024-01-15T07:53:46;101425.18;;;19.83;90.56
81162;BME280;70638;-33.792;151.032;2024-01-15T07:56:16;101426.39;;;19.77;90.25
81162;BME280;70638;-33.792;151.032;2024-01-15T07:58:47;101435.02;;;19.76;92.56
81162;BME280;70638;-33.792;151.032;2024-01-15T08:01:17;101428.52;;;19.87;89.19
81162;BME280;70638;-33.792;151.032;2024-01-15T08:03:47;101422.28;;;19.82;86.85
81162;BME280;70638;-33.792;151.032;2024-01-15T08:06:22;101427.48;;;19.82;88.10
81162;BME280;70638;-33.792;151.032;2024-01-15T08:08:47;101426.47;;;19.83;86.70
81162;BME280;70638;-33.792;151.032;2024-01-15T08:11:17;101425.36;;;19.80;88.00
81162;BME280;70638;-33.792;151.032;2024-01-15T08:13:47;101425.28;;;19.79;87.95
81162;BME280;70638;-33.792;151.032;2024-01-15T08:16:18;101429.02;;;19.80;88.26
81162;BME280;70638;-33.792;151.032;2024-01-15T08:18:48;101432.43;;;19.92;84.96
81162;BME280;70638;-33.792;151.032;2024-01-15T08:21:18;101443.09;;;19.93;85.16
81162;BME280;70638;-33.792;151.032;2024-01-15T08:23:48;101446.09;;;19.82;85.86
81162;BME280;70638;-33.792;151.032;2024-01-15T08:26:18;101449.09;;;19.82;85.72
81162;BME280;70638;-33.792;151.032;2024-01-15T08:28:49;101450.80;;;19.80;86.61
81162;BME280;70638;-33.792;151.032;2024-01-15T08:31:20;101450.95;;;19.80;85.79
81162;BME280;70638;-33.792;151.032;2024-01-15T08:33:49;101450.55;;;19.72;89.48
81162;BME280;70638;-33.792;151.032;2024-01-15T08:36:25;101453.11;;;19.67;88.02
81162;BME280;70638;-33.792;151.032;2024-01-15T08:38:55;101459.09;;;19.70;89.72
81162;BME280;70638;-33.792;151.032;2024-01-15T08:41:25;101458.96;;;19.62;89.77
81162;BME280;70638;-33.792;151.032;2024-01-15T08:43:55;101457.69;;;19.64;88.24
81162;BME280;70638;-33.792;151.032;2024-01-15T08:46:21;101466.05;;;19.54;91.30
81162;BME280;70638;-33.792;151.032;2024-01-15T08:48:55;101470.14;;;19.56;92.47
81162;BME280;70638;-33.792;151.032;2024-01-15T08:51:21;101474.66;;;19.45;91.52
81162;BME280;70638;-33.792;151.032;2024-01-15T08:53:52;101474.41;;;19.43;93.05
81162;BME280;70638;-33.792;151.032;2024-01-15T08:56:26;101469.99;;;19.49;91.90
81162;BME280;70638;-33.792;151.032;2024-01-15T08:58:57;101477.41;;;19.47;96.38
81162;BME280;70638;-33.792;151.032;2024-01-15T09:01:23;101483.30;;;19.35;99.12
81162;BME280;70638;-33.792;151.032;2024-01-15T09:03:53;101482.43;;;19.34;94.63
81162;BME280;70638;-33.792;151.032;2024-01-15T09:06:23;101478.75;;;19.40;94.47
81162;BME280;70638;-33.792;151.032;2024-01-15T09:09:03;101475.03;;;19.46;91.28
81162;BME280;70638;-33.792;151.032;2024-01-15T09:11:24;101479.21;;;19.59;91.74
81162;BME280;70638;-33.792;151.032;2024-01-15T09:13:58;101474.78;;;19.51;90.52
81162;BME280;70638;-33.792;151.032;2024-01-15T09:16:25;101480.06;;;19.49;93.70
81162;BME280;70638;-33.792;151.032;2024-01-15T09:19:00;101480.46;;;19.40;94.19
81162;BME280;70638;-33.792;151.032;2024-01-15T09:21:25;101480.30;;;19.37;93.92
81162;BME280;70638;-33.792;151.032;2024-01-15T09:23:55;101473.12;;;19.51;88.88
81162;BME280;70638;-33.792;151.032;2024-01-15T09:26:26;101477.66;;;19.47;89.56
81162;BME280;70638;-33.792;151.032;2024-01-15T09:29:04;101483.78;;;19.43;92.18
81162;BME280;70638;-33.792;151.032;2024-01-15T09:31:26;101491.55;;;19.34;94.53
81162;BME280;70638;-33.792;151.032;2024-01-15T09:33:59;101497.27;;;19.28;93.07
81162;BME280;70638;-33.792;151.032;2024-01-15T09:36:27;101506.78;;;19.22;91.93
81162;BME280;70638;-33.792;151.032;2024-01-15T09:38:57;101504.71;;;19.44;87.75
81162;BME280;70638;-33.792;151.032;2024-01-15T09:41:28;101506.92;;;19.47;89.41
81162;BME280;70638;-33.792;151.032;2024-01-15T09:43:58;101503.42;;;19.47;84.80
81162;BME280;70638;-33.792;151.032;2024-01-15T09:46:28;101507.60;;;19.44;86.27
81162;BME280;70638;-33.792;151.032;2024-01-15T09:48:59;101507.75;;;19.40;86.18
81162;BME280;70638;-33.792;151.032;2024-01-15T09:51:35;101508.34;;;19.35;88.19
81162;BME280;70638;-33.792;151.032;2024-01-15T09:54:00;101516.95;;;19.23;89.50
81162;BME280;70638;-33.792;151.032;2024-01-15T09:56:31;101525.62;;;19.15;92.34
81162;BME280;70638;-33.792;151.032;2024-01-15T09:59:01;101527.92;;;19.09;92.35
81162;BME280;70638;-33.792;151.032;2024-01-15T10:01:32;101531.74;;;19.11;91.28
81162;BME280;70638;-33.792;151.032;2024-01-15T10:04:01;101534.56;;;19.07;95.12
81162;BME280;70638;-33.792;151.032;2024-01-15T10:06:31;101524.38;;;18.97;95.22
81162;BME280;70638;-33.792;151.032;2024-01-15T10:09:02;101520.80;;;18.93;98.38
81162;BME280;70638;-33.792;151.032;2024-01-15T10:11:37;101527.92;;;18.86;100.00
81162;BME280;70638;-33.792;151.032;2024-01-15T10:14:03;101536.75;;;18.78;100.00
81162;BME280;70638;-33.792;151.032;2024-01-15T10:16:33;101535.22;;;18.61;100.00
81162;BME280;70638;-33.792;151.032;2024-01-15T10:19:04;101532.88;;;18.53;100.00
81162;BME280;70638;-33.792;151.032;2024-01-15T10:21:34;101538.38;;;18.48;100.00
81162;BME280;70638;-33.792;151.032;2024-01-15T10:24:08;101537.94;;;18.46;100.00
81162;BME280;70638;-33.792;151.032;2024-01-15T10:26:38;101538.55;;;18.48;100.00
81162;BME280;70638;-33.792;151.032;2024-01-15T10:29:09;101545.61;;;18.49;100.00
81162;BME280;70638;-33.792;151.032;2024-01-15T10:31:36;101545.07;;;18.44;100.00
81162;BME280;70638;-33.792;151.032;2024-01-15T10:34:11;101542.33;;;18.37;100.00
81162;BME280;70638;-33.792;151.032;2024-01-15T10:36:39;101542.25;;;18.40;100.00
81162;BME280;70638;-33.792;151.032;2024-01-15T10:39:14;101550.34;;;18.40;100.00
81162;BME280;70638;-33.792;151.032;2024-01-15T10:41:38;101547.89;;;18.59;100.00
81162;BME280;70638;-33.792;151.032;2024-01-15T10:44:08;101549.83;;;18.72;100.00
81162;BME280;70638;-33.792;151.032;2024-01-15T10:46:39;101542.91;;;18.84;100.00
81162;BME280;70638;-33.792;151.032;2024-01-15T10:49:26;101543.45;;;18.89;100.00
81162;BME280;70638;-33.792;151.032;2024-01-15T10:51:40;101547.64;;;18.94;100.00
81162;BME280;70638;-33.792;151.032;2024-01-15T10:54:14;101546.12;;;18.96;100.00
81162;BME280;70638;-33.792;151.032;2024-01-15T10:56:41;101549.86;;;18.98;100.00
81162;BME280;70638;-33.792;151.032;2024-01-15T10:59:13;101547.52;;;19.07;100.00
81162;BME280;70638;-33.792;151.032;2024-01-15T11:01:43;101545.22;;;19.06;100.00
81162;BME280;70638;-33.792;151.032;2024-01-15T11:04:13;101546.75;;;19.03;100.00
81162;BME280;70638;-33.792;151.032;2024-01-15T11:06:45;101547.23;;;18.95;100.00
81162;BME280;70638;-33.792;151.032;2024-01-15T11:09:14;101549.00;;;18.94;100.00
81162;BME280;70638;-33.792;151.032;2024-01-15T11:11:45;101551.12;;;18.92;100.00
81162;BME280;70638;-33.792;151.032;2024-01-15T11:14:38;101549.67;;;18.89;100.00
81162;BME280;70638;-33.792;151.032;2024-01-15T11:16:55;101551.00;;;18.84;100.00
81162;BME280;70638;-33.792;151.032;2024-01-15T11:19:19;101552.53;;;18.84;100.00
81162;BME280;70638;-33.792;151.032;2024-01-15T11:21:47;101548.11;;;18.80;100.00
81162;BME280;70638;-33.792;151.032;2024-01-15T11:24:39;101552.08;;;18.76;100.00
81162;BME280;70638;-33.792;151.032;2024-01-15T11:26:47;101553.49;;;18.72;100.00
81162;BME280;70638;-33.792;151.032;2024-01-15T11:29:31;101559.62;;;18.68;100.00
81162;BME280;70638;-33.792;151.032;2024-01-15T11:31:59;101551.50;;;18.52;100.00
81162;BME280;70638;-33.792;151.032;2024-01-15T11:34:58;101544.20;;;18.54;100.00
81162;BME280;70638;-33.792;151.032;2024-01-15T11:39:40;101542.86;;;18.43;100.00
81162;BME280;70638;-33.792;151.032;2024-01-15T11:41:49;101542.43;;;18.44;100.00
81162;BME280;70638;-33.792;151.032;2024-01-15T11:44:26;101540.55;;;18.40;100.00
81162;BME280;70638;-33.792;151.032;2024-01-15T11:47:02;101541.48;;;18.40;100.00
81162;BME280;70638;-33.792;151.032;2024-01-15T11:52:02;101530.73;;;18.34;100.00
81162;BME280;70638;-33.792;151.032;2024-01-15T11:54:30;101528.94;;;18.35;100.00
81162;BME280;70638;-33.792;151.032;2024-01-15T11:56:54;101524.84;;;18.32;100.00
81162;BME280;70638;-33.792;151.032;2024-01-15T11:59:27;101517.35;;;18.31;100.00
81162;BME280;70638;-33.792;151.032;2024-01-15T12:01:55;101511.26;;;18.28;100.00
81162;BME280;70638;-33.792;151.032;2024-01-15T12:04:26;101505.15;;;18.30;100.00
81162;BME280;70638;-33.792;151.032;2024-01-15T12:06:57;101496.28;;;18.28;100.00
81162;BME280;70638;-33.792;151.032;2024-01-15T12:09:27;101492.42;;;18.25;100.00
81162;BME280;70638;-33.792;151.032;2024-01-15T12:12:09;101490.83;;;18.27;100.00
81162;BME280;70638;-33.792;151.032;2024-01-15T12:14:28;101495.00;;;18.27;100.00
81162;BME280;70638;-33.792;151.032;2024-01-15T12:16:58;101488.03;;;18.26;100.00
81162;BME280;70638;-33.792;151.032;2024-01-15T12:19:28;101484.36;;;18.27;100.00
81162;BME280;70638;-33.792;151.032;2024-01-15T12:21:58;101483.36;;;18.29;100.00
81162;BME280;70638;-33.792;151.032;2024-01-15T12:24:28;101481.23;;;18.29;100.00
81162;BME280;70638;-33.792;151.032;2024-01-15T12:26:59;101473.38;;;18.27;100.00
81162;BME280;70638;-33.792;151.032;2024-01-15T12:29:31;101462.14;;;18.27;100.00
81162;BME280;70638;-33.792;151.032;2024-01-15T12:32:03;101453.86;;;18.21;100.00
81162;BME280;70638;-33.792;151.032;2024-01-15T12:34:35;101452.66;;;18.22;100.00